• Join FlightAware (Why Join?)
  • Login
  • US Flag 
12:57PM EDT


 

Airport Tracker/Info


-or-


 

Live Flight TrackerFlight Track Log ✈ JIA2355 ✈ 28-Jul-2013 ✈ KTRI - KCLT

Flight Track Log - Related Links

Times and Time Zones

All times are in EDT time to prevent confusion due to time zone crossing. See the JIA2355 flight status page for this flight to view local times or setup timezone preferences in your user account.

Time Position Orientation Groundspeed Altitude Reporting Facility
EDT Latitude Longitude Course Direction KTS MPH feet Rate Location/Type
01:03PM 36.3858 -82.4372 177° South 257 296 4,800  Level Atlanta Center
01:04PM 36.4333 -82.1208 90° East  Level FlightAware Approximate
01:04PM 36.3350 -82.3789 137° Southeast 269 310 7,500  Level Atlanta Center
01:05PM 36.3659 -82.0826 141° Southeast  Level FlightAware Approximate
01:06PM 36.2984 -82.0408 158° South  Level FlightAware Approximate
01:06PM 36.2078 -82.2478 140° Southeast 304 350 11,000  Level Atlanta Center
01:07PM 36.2306 -81.9981 152° Southeast  Level FlightAware Approximate
01:07PM 36.1300 -82.1928 150° Southeast 334 384 11,000  Level Atlanta Center
01:08PM 36.0494 -82.1075 139° Southeast 368 423 11,200 900 Climbing Atlanta Center
01:09PM 35.9833 -82.0217 134° Southeast 356 410 12,900 900 Climbing Atlanta Center
01:10PM 35.9089 -81.9389 138° Southeast 351 404 13,000  Climbing Atlanta Center
01:11PM 35.8386 -81.8564 136° Southeast 351 404 13,000  Level Atlanta Center
01:12PM 35.7492 -81.7539 137° Southeast 360 414 13,000 -300 Level Atlanta Center
01:13PM 35.6831 -81.6789 137° Southeast 358 412 12,400 -960 Descending Atlanta Center
01:14PM 35.6147 -81.5992 137° Southeast 352 405 11,200 -900 Descending Atlanta Center
01:15PM 35.5631 -81.5217 129° Southeast 327 376 10,700 -840 Descending Atlanta Center
01:16PM 35.5178 -81.4514 128° Southeast 277 319 9,600 -1,200 Descending Atlanta Center
01:17PM 35.5347 -81.3667 76° East 228 262 8,400 -1,140 Descending Atlanta Center
01:18PM 35.5644 -81.2892 65° Northeast 228 262 7,400 -720 Descending Atlanta Center
01:19PM 35.5792 -81.2044 78° East 245 282 7,000 -600 Descending Atlanta Center
01:20PM 35.5856 -81.1250 84° East 250 288 6,200 -540 Descending Atlanta Center
01:21PM 35.5942 -81.0481 82° East 228 262 6,000 -360 Descending Atlanta Center
01:22PM 35.5597 -80.9983 130° Southeast 191 220 5,500 -480 Descending Atlanta Center
01:23PM 35.5094 -80.9950 177° South 174 200 5,000 -300 Descending Atlanta Center
01:24PM 35.4633 -80.9917 177° South 165 190 5,000 -360 Level Atlanta Center
01:25PM 35.4111 -80.9833 173° South 169 194 4,300 -780 Descending Atlanta Center
01:26PM 35.3672 -80.9825 179° South 167 192 3,500 -840 Descending Atlanta Center
01:27PM 35.3192 -80.9792 177° South 164 189 2,600 -840 Descending Atlanta Center
01:28PM 35.2794 -80.9756 176° South 153 176 1,900 -840 Descending Atlanta Center
01:29PM 35.2336 -80.9722 177° South 151 174 1,000 -900 Descending Atlanta Center